createdAt,value
2017-07-05T00:01:45.075Z,16.20
2017-07-05T00:04:11.375Z,15.40
2017-07-05T00:06:37.860Z,15.60
2017-07-05T00:09:04.263Z,15.80
2017-07-05T00:11:30.531Z,15.80
2017-07-05T00:13:56.840Z,15.60
2017-07-05T00:16:23.134Z,15.90
2017-07-05T00:18:49.423Z,16.10
2017-07-05T00:21:16.486Z,15.80
2017-07-05T00:23:43.501Z,15.40
2017-07-05T00:26:09.842Z,15.40
2017-07-05T00:28:36.094Z,15.60
2017-07-05T00:31:03.120Z,15.40
2017-07-05T00:33:29.382Z,15.40
2017-07-05T00:35:56.413Z,15.30
2017-07-05T00:38:22.688Z,15.20
2017-07-05T00:40:48.958Z,15.00
2017-07-05T00:43:15.221Z,14.90
2017-07-05T00:45:42.222Z,15.60
2017-07-05T00:48:08.564Z,15.60
2017-07-05T00:50:34.830Z,15.70
2017-07-05T00:53:01.113Z,15.80
2017-07-05T00:55:28.287Z,15.80
2017-07-05T00:57:55.314Z,14.70
2017-07-05T01:00:22.218Z,14.60
2017-07-05T01:02:48.517Z,14.80
2017-07-05T01:05:15.953Z,15.10
2017-07-05T01:07:42.319Z,15.00
2017-07-05T01:10:08.584Z,14.90
2017-07-05T01:12:34.851Z,14.90
2017-07-05T01:15:01.369Z,15.10
2017-07-05T01:17:27.704Z,15.40
2017-07-05T01:19:53.995Z,15.30
2017-07-05T01:22:20.258Z,15.20
2017-07-05T01:24:46.522Z,15.60
2017-07-05T01:27:12.796Z,15.60
2017-07-05T01:29:39.070Z,15.90
2017-07-05T01:32:06.091Z,15.70
2017-07-05T01:34:32.390Z,15.70
2017-07-05T01:36:58.668Z,15.70
2017-07-05T01:39:25.735Z,15.80
2017-07-05T01:41:52.038Z,15.70
2017-07-05T01:44:19.080Z,15.60
2017-07-05T01:46:46.280Z,15.70
2017-07-05T01:49:12.583Z,15.70
2017-07-05T01:51:38.893Z,15.80
2017-07-05T01:54:05.199Z,15.80
2017-07-05T01:56:31.503Z,16.00
2017-07-05T01:58:57.785Z,15.90
2017-07-05T02:01:24.084Z,15.90
2017-07-05T02:03:50.349Z,15.80
2017-07-05T02:06:17.915Z,15.50
2017-07-05T02:08:44.245Z,15.50
2017-07-05T02:11:11.262Z,15.10
2017-07-05T02:13:37.542Z,15.10
2017-07-05T02:16:03.849Z,15.00
2017-07-05T02:18:37.110Z,15.10
2017-07-05T02:21:03.373Z,14.90
2017-07-05T02:23:30.406Z,14.80
2017-07-05T02:25:57.423Z,14.70
2017-07-05T02:28:23.703Z,14.70
2017-07-05T02:30:49.979Z,14.60
2017-07-05T02:33:16.262Z,14.20
2017-07-05T02:35:42.557Z,14.50
2017-07-05T02:38:09.591Z,14.90
2017-07-05T02:40:35.871Z,14.80
2017-07-05T02:43:02.172Z,15.00
2017-07-05T02:45:28.447Z,14.80
2017-07-05T02:47:54.731Z,14.60
2017-07-05T02:50:21.007Z,14.70
2017-07-05T02:52:47.263Z,14.60
2017-07-05T02:55:13.546Z,14.70
2017-07-05T02:57:39.808Z,14.70
2017-07-05T03:00:06.122Z,14.60
2017-07-05T03:02:32.394Z,14.70
2017-07-05T03:04:58.667Z,14.70
2017-07-05T03:07:24.943Z,14.60
2017-07-05T03:09:51.218Z,14.50
2017-07-05T03:12:17.507Z,14.40
2017-07-05T03:14:43.780Z,14.40
2017-07-05T03:17:10.066Z,14.30
2017-07-05T03:19:36.340Z,14.10
2017-07-05T03:22:02.631Z,14.10
2017-07-05T03:24:28.919Z,14.20
2017-07-05T03:26:55.186Z,14.20
2017-07-05T03:29:21.450Z,14.20
2017-07-05T03:31:48.473Z,13.90
2017-07-05T03:34:14.756Z,13.80
2017-07-05T03:36:41.053Z,14.30
2017-07-05T03:39:08.150Z,14.00
2017-07-05T03:41:34.414Z,13.90
2017-07-05T03:44:01.458Z,14.60
2017-07-05T03:46:27.780Z,14.60
2017-07-05T03:48:54.097Z,14.50
2017-07-05T03:51:20.406Z,14.60
2017-07-05T03:53:46.730Z,14.70
2017-07-05T03:56:13.007Z,14.70
2017-07-05T03:58:40.957Z,14.60
2017-07-05T04:01:07.272Z,14.60
2017-07-05T04:03:33.578Z,14.90
2017-07-05T04:05:59.882Z,14.60
2017-07-05T04:08:26.900Z,14.10
2017-07-05T04:10:53.945Z,14.20
2017-07-05T04:13:20.233Z,14.10
2017-07-05T04:15:46.506Z,14.00
2017-07-05T04:18:12.773Z,13.80
2017-07-05T04:20:39.061Z,13.80
2017-07-05T04:23:05.322Z,13.50
2017-07-05T04:25:31.608Z,13.60
2017-07-05T04:27:57.907Z,13.70
2017-07-05T04:30:24.206Z,13.90
2017-07-05T04:32:51.238Z,13.90
2017-07-05T04:35:17.516Z,13.90
2017-07-05T04:37:43.823Z,13.90
2017-07-05T04:40:10.117Z,14.00
2017-07-05T04:42:36.409Z,14.10
2017-07-05T04:45:02.766Z,14.10
2017-07-05T04:47:29.094Z,14.10
2017-07-05T04:49:55.387Z,13.90
2017-07-05T04:52:21.681Z,14.00
2017-07-05T04:54:48.716Z,14.30
2017-07-05T04:57:15.005Z,14.20
2017-07-05T04:59:41.297Z,14.10
2017-07-05T05:02:08.325Z,14.20
2017-07-05T05:04:35.371Z,14.40
2017-07-05T05:07:02.390Z,14.40
2017-07-05T05:09:28.687Z,14.30
2017-07-05T05:11:54.979Z,14.10
2017-07-05T05:14:21.286Z,14.30
2017-07-05T05:16:47.581Z,14.40
2017-07-05T05:19:13.912Z,14.30
2017-07-05T05:21:40.233Z,14.40
2017-07-05T05:24:06.562Z,14.60
2017-07-05T05:26:32.873Z,14.90
2017-07-05T05:28:59.907Z,14.60
2017-07-05T05:31:26.182Z,14.60
2017-07-05T05:33:52.481Z,14.80
2017-07-05T05:36:18.870Z,14.60
2017-07-05T05:38:45.206Z,14.40
2017-07-05T05:41:11.641Z,14.50
2017-07-05T05:43:37.919Z,14.60
2017-07-05T05:46:04.242Z,14.70
2017-07-05T05:48:30.607Z,14.20
2017-07-05T05:50:56.934Z,14.20
2017-07-05T05:53:25.179Z,13.90
2017-07-05T05:55:51.682Z,13.80
2017-07-05T05:58:17.962Z,14.50
2017-07-05T06:00:44.306Z,14.50
2017-07-05T06:03:11.391Z,15.00
2017-07-05T06:05:37.670Z,15.00
2017-07-05T06:08:03.982Z,14.90
2017-07-05T06:10:30.310Z,15.00
2017-07-05T06:12:56.610Z,14.70
2017-07-05T06:15:22.999Z,14.70
2017-07-05T06:17:51.069Z,15.20
2017-07-05T06:20:17.361Z,15.10
2017-07-05T06:22:44.458Z,15.00
2017-07-05T06:25:10.775Z,15.00
2017-07-05T06:27:37.099Z,15.20
2017-07-05T06:30:03.490Z,15.50
2017-07-05T06:32:30.536Z,15.50
2017-07-05T06:34:56.817Z,15.40
2017-07-05T06:37:23.143Z,15.60
2017-07-05T06:39:49.432Z,15.80
2017-07-05T06:42:16.463Z,15.50
2017-07-05T06:44:43.501Z,15.30
2017-07-05T06:47:09.774Z,15.30
2017-07-05T06:49:36.134Z,15.50
2017-07-05T06:52:02.580Z,14.80
2017-07-05T06:54:28.885Z,15.20
2017-07-05T06:56:55.178Z,14.90
2017-07-05T06:59:22.286Z,15.50
2017-07-05T07:01:48.589Z,15.40
2017-07-05T07:04:14.907Z,15.50
2017-07-05T07:06:41.205Z,15.70
2017-07-05T07:09:08.325Z,15.60
2017-07-05T07:11:35.410Z,15.60
2017-07-05T07:14:02.650Z,15.60
2017-07-05T07:16:29.919Z,15.80
2017-07-05T07:18:56.955Z,15.50
2017-07-05T07:21:24.006Z,15.30
2017-07-05T07:23:50.299Z,15.20
2017-07-05T07:26:16.602Z,15.20
2017-07-05T07:28:42.893Z,15.40
2017-07-05T07:31:10.023Z,15.50
2017-07-05T07:33:37.076Z,15.70
2017-07-05T07:36:03.391Z,15.70
2017-07-05T07:38:29.678Z,15.70
2017-07-05T07:40:55.960Z,15.70
2017-07-05T07:43:22.288Z,15.50
2017-07-05T07:45:48.727Z,15.50
2017-07-05T07:48:15.041Z,15.60
2017-07-05T07:50:41.324Z,16.00
2017-07-05T07:53:07.620Z,15.90
2017-07-05T07:55:33.907Z,16.10
2017-07-05T07:58:00.226Z,16.00
2017-07-05T08:00:26.521Z,15.90
2017-07-05T08:02:52.853Z,15.90
2017-07-05T08:05:19.184Z,15.70
2017-07-05T08:07:45.479Z,15.90
2017-07-05T08:10:11.871Z,15.90
2017-07-05T08:12:38.171Z,15.90
2017-07-05T08:15:05.211Z,16.30
2017-07-05T08:17:32.229Z,16.30
2017-07-05T08:19:58.538Z,16.20
2017-07-05T08:22:24.818Z,16.30
2017-07-05T08:24:51.099Z,16.40
2017-07-05T08:27:17.382Z,16.00
2017-07-05T08:29:44.433Z,16.00
2017-07-05T08:32:11.462Z,15.80
2017-07-05T08:34:38.542Z,15.90
2017-07-05T08:37:04.885Z,15.90
2017-07-05T08:39:31.185Z,16.10
2017-07-05T08:41:58.222Z,16.30
2017-07-05T08:44:24.497Z,16.20
2017-07-05T08:46:50.934Z,16.30
2017-07-05T08:49:17.235Z,16.10
2017-07-05T08:51:43.559Z,15.80
2017-07-05T08:54:10.630Z,16.30
2017-07-05T08:56:36.932Z,16.30
2017-07-05T08:59:03.968Z,16.60
2017-07-05T09:01:31.017Z,16.90
2017-07-05T09:03:58.044Z,16.70
2017-07-05T09:06:24.369Z,16.70
2017-07-05T09:08:50.667Z,16.30
2017-07-05T09:11:16.948Z,16.20
2017-07-05T09:13:43.237Z,16.40
2017-07-05T09:16:09.528Z,16.80
2017-07-05T09:18:35.855Z,17.00
2017-07-05T09:21:02.890Z,17.00
2017-07-05T09:23:29.926Z,17.10
2017-07-05T09:25:56.212Z,17.10
2017-07-05T09:28:22.495Z,17.10
2017-07-05T09:30:48.779Z,17.30
2017-07-05T09:33:15.083Z,17.00
2017-07-05T09:35:41.375Z,17.10
2017-07-05T09:38:08.431Z,17.20
2017-07-05T09:40:35.471Z,17.40
2017-07-05T09:43:01.742Z,17.30
2017-07-05T09:45:28.032Z,17.40
2017-07-05T09:47:55.065Z,17.40
2017-07-05T09:50:21.357Z,17.40
2017-07-05T09:52:47.682Z,17.70
2017-07-05T09:55:14.014Z,17.70
2017-07-05T09:57:40.304Z,17.40
2017-07-05T10:00:07.353Z,17.90
2017-07-05T10:02:34.400Z,17.40
2017-07-05T10:05:01.458Z,17.30
2017-07-05T10:07:27.735Z,17.30
2017-07-05T10:09:54.046Z,17.50
2017-07-05T10:12:20.391Z,17.40
2017-07-05T10:14:46.700Z,17.20
2017-07-05T10:17:13.002Z,17.20
2017-07-05T10:19:40.015Z,17.00
2017-07-05T10:22:06.325Z,17.00
2017-07-05T10:24:32.618Z,17.50
2017-07-05T10:26:59.654Z,17.80
2017-07-05T10:29:25.967Z,17.70
2017-07-05T10:31:52.299Z,17.70
2017-07-05T10:34:18.595Z,17.70
2017-07-05T10:36:44.935Z,17.30
2017-07-05T10:39:11.229Z,17.20
2017-07-05T10:41:37.522Z,17.40
2017-07-05T10:44:04.569Z,17.50
2017-07-05T10:46:31.740Z,17.40
2017-07-05T10:48:58.759Z,17.30
2017-07-05T10:51:25.835Z,17.30
2017-07-05T10:53:52.269Z,17.20
2017-07-05T10:56:19.180Z,17.60
2017-07-05T10:58:46.275Z,17.10
2017-07-05T11:01:12.558Z,17.10
2017-07-05T11:03:39.636Z,17.80
2017-07-05T11:06:05.962Z,17.80
2017-07-05T11:08:33.014Z,18.00
2017-07-05T11:10:59.317Z,18.00
2017-07-05T11:13:25.605Z,17.90
2017-07-05T11:15:51.918Z,17.80
2017-07-05T11:18:18.199Z,18.10
2017-07-05T11:20:45.258Z,18.10
2017-07-05T11:23:12.287Z,17.60
2017-07-05T11:25:38.590Z,17.50
2017-07-05T11:28:04.888Z,18.40
2017-07-05T11:30:31.217Z,18.10
2017-07-05T11:32:57.510Z,18.10
2017-07-05T11:35:24.572Z,18.20
2017-07-05T11:37:51.610Z,18.30
2017-07-05T11:40:17.876Z,18.30
2017-07-05T11:42:44.201Z,18.60
2017-07-05T11:45:10.493Z,19.10
2017-07-05T11:47:37.580Z,18.90
2017-07-05T11:50:03.884Z,18.90
2017-07-05T11:52:30.226Z,18.60
2017-07-05T11:54:57.333Z,18.40
2017-07-05T11:57:23.642Z,18.40
2017-07-05T11:59:49.937Z,18.90
2017-07-05T12:02:16.966Z,19.70
2017-07-05T12:04:43.310Z,19.70
2017-07-05T12:07:10.325Z,19.10
2017-07-05T12:09:36.670Z,19.00
2017-07-05T12:12:02.967Z,19.10
2017-07-05T12:14:29.307Z,18.80
2017-07-05T12:16:55.628Z,18.60
2017-07-05T12:19:21.953Z,18.80
2017-07-05T12:21:48.242Z,18.90
2017-07-05T12:24:14.562Z,18.90
2017-07-05T12:26:41.588Z,19.20
2017-07-05T12:29:08.634Z,19.00
2017-07-05T12:31:34.944Z,18.90
2017-07-05T12:34:01.218Z,19.10
2017-07-05T12:36:27.546Z,19.30
2017-07-05T12:38:54.611Z,19.30
2017-07-05T12:41:21.768Z,19.40
2017-07-05T12:43:48.039Z,19.40
2017-07-05T12:46:14.359Z,19.30
2017-07-05T12:48:40.654Z,19.10
2017-07-05T12:51:07.015Z,19.80
2017-07-05T12:53:33.377Z,20.30
2017-07-05T12:56:00.437Z,20.30
2017-07-05T12:58:27.483Z,20.80
2017-07-05T13:00:54.548Z,20.60
2017-07-05T13:03:20.845Z,20.50
2017-07-05T13:05:47.163Z,20.10
2017-07-05T13:08:13.493Z,19.70
2017-07-05T13:10:39.800Z,19.60
2017-07-05T13:13:06.097Z,20.10
2017-07-05T13:15:32.396Z,20.10
2017-07-05T13:17:58.688Z,20.10
2017-07-05T13:20:24.948Z,20.50
2017-07-05T13:22:51.278Z,20.70
2017-07-05T13:25:17.595Z,20.40
2017-07-05T13:27:43.910Z,20.40
2017-07-05T13:30:10.224Z,20.90
2017-07-05T13:32:36.514Z,21.50
2017-07-05T13:35:02.799Z,21.30
2017-07-05T13:37:29.279Z,21.10
2017-07-05T13:39:55.614Z,21.00
2017-07-05T13:42:22.657Z,21.40
2017-07-05T13:44:48.949Z,21.30
2017-07-05T13:47:15.395Z,21.30
2017-07-05T13:49:41.690Z,20.90
2017-07-05T13:52:08.029Z,21.10
2017-07-05T13:54:34.369Z,21.80
2017-07-05T13:57:00.640Z,22.30
2017-07-05T13:59:26.943Z,22.70
2017-07-05T14:01:54.000Z,22.00
2017-07-05T14:04:20.320Z,21.90
2017-07-05T14:06:47.375Z,22.40
2017-07-05T14:09:13.666Z,22.30
2017-07-05T14:11:39.994Z,21.60
2017-07-05T14:14:06.304Z,21.70
2017-07-05T14:16:32.595Z,21.80
2017-07-05T14:18:58.873Z,22.40
2017-07-05T14:21:25.176Z,23.50
2017-07-05T14:23:51.488Z,23.90
2017-07-05T14:26:17.821Z,23.10
2017-07-05T14:28:44.115Z,22.80
2017-07-05T14:31:10.416Z,23.00
2017-07-05T14:33:36.723Z,23.60
2017-07-05T14:36:03.039Z,24.10
2017-07-05T14:38:29.335Z,23.80
2017-07-05T14:40:55.667Z,24.50
2017-07-05T14:43:21.933Z,25.30
2017-07-05T14:45:48.237Z,25.80
2017-07-05T14:48:14.543Z,24.80
2017-07-05T14:50:40.833Z,24.10
2017-07-05T14:53:07.140Z,24.30
2017-07-05T14:55:33.434Z,24.90
2017-07-05T14:57:59.735Z,25.30
2017-07-05T15:00:26.035Z,26.30
2017-07-05T15:02:53.112Z,26.00
2017-07-05T15:05:19.410Z,26.00
2017-07-05T15:07:46.497Z,27.10
2017-07-05T15:10:12.790Z,27.00
2017-07-05T15:12:39.078Z,27.30
2017-07-05T15:15:05.385Z,25.60
2017-07-05T15:17:31.670Z,26.60
2017-07-05T15:19:58.000Z,27.60
2017-07-05T15:22:24.330Z,27.40
2017-07-05T15:24:50.635Z,28.30
2017-07-05T15:27:16.914Z,27.50
2017-07-05T15:29:43.963Z,29.70
2017-07-05T15:32:11.000Z,28.50
2017-07-05T15:34:38.085Z,26.10
2017-07-05T15:37:04.386Z,25.90
2017-07-05T15:39:31.411Z,23.20
2017-07-05T15:41:57.719Z,23.10
2017-07-05T15:44:24.031Z,22.70
2017-07-05T15:46:50.349Z,22.90
2017-07-05T15:49:16.684Z,23.50
2017-07-05T15:51:43.007Z,23.70
2017-07-05T15:54:09.330Z,23.30
2017-07-05T15:56:35.623Z,23.60
2017-07-05T15:59:01.931Z,23.80
2017-07-05T16:01:28.219Z,23.90
2017-07-05T16:03:54.512Z,23.60
2017-07-05T16:06:20.823Z,25.40
2017-07-05T16:08:47.122Z,26.90
2017-07-05T16:11:13.440Z,27.30
2017-07-05T16:13:39.782Z,27.30
2017-07-05T16:16:06.086Z,27.80
2017-07-05T16:18:33.138Z,27.30
2017-07-05T16:20:59.455Z,27.30
2017-07-05T16:23:26.495Z,24.90
2017-07-05T16:25:52.806Z,24.80
2017-07-05T16:28:19.206Z,23.90
2017-07-05T16:30:45.562Z,23.50
2017-07-05T16:33:11.874Z,23.20
2017-07-05T16:35:38.193Z,22.70
2017-07-05T16:38:04.518Z,22.80
2017-07-05T16:40:30.861Z,22.60
2017-07-05T16:42:57.199Z,23.00
2017-07-05T16:45:23.511Z,22.70
2017-07-05T16:47:49.803Z,23.30
2017-07-05T16:50:16.152Z,23.70
2017-07-05T16:52:42.437Z,23.00
2017-07-05T16:55:08.766Z,22.90
2017-07-05T16:57:35.191Z,22.80
2017-07-05T17:00:01.522Z,22.90
2017-07-05T17:02:27.832Z,24.20
2017-07-05T17:04:54.155Z,25.80
2017-07-05T17:07:20.471Z,27.30
2017-07-05T17:09:46.777Z,28.60
2017-07-05T17:12:13.150Z,25.50
2017-07-05T17:14:39.487Z,24.40
2017-07-05T17:17:05.807Z,23.50
2017-07-05T17:19:32.090Z,23.00
2017-07-05T17:21:59.270Z,22.80
2017-07-05T17:24:25.596Z,22.70
2017-07-05T17:26:51.903Z,22.10
2017-07-05T17:29:18.179Z,21.70
2017-07-05T17:31:44.499Z,22.00
2017-07-05T17:34:10.834Z,21.90
2017-07-05T17:36:37.128Z,21.50
2017-07-05T17:39:03.454Z,21.40
2017-07-05T17:41:29.763Z,21.80
2017-07-05T17:43:56.062Z,21.80
2017-07-05T17:46:22.343Z,22.00
2017-07-05T17:48:49.388Z,21.80
2017-07-05T17:51:16.436Z,21.80
2017-07-05T17:53:50.420Z,21.90
2017-07-05T17:56:16.716Z,21.90
2017-07-05T17:58:43.031Z,22.00
2017-07-05T18:01:09.338Z,22.20
2017-07-05T18:03:36.374Z,21.50
2017-07-05T18:06:03.412Z,21.40
2017-07-05T18:08:36.719Z,21.40
2017-07-05T18:11:03.018Z,21.20
2017-07-05T18:13:30.279Z,21.60
2017-07-05T18:15:57.348Z,21.50
2017-07-05T18:18:24.426Z,21.40
2017-07-05T18:20:50.745Z,21.30
2017-07-05T18:23:17.055Z,20.80
2017-07-05T18:25:44.105Z,21.30
2017-07-05T18:28:10.407Z,21.20
2017-07-05T18:30:43.655Z,21.10
2017-07-05T18:33:09.982Z,20.90
2017-07-05T18:35:36.274Z,21.20
2017-07-05T18:38:02.645Z,21.10
2017-07-05T18:40:28.951Z,21.90
2017-07-05T18:42:55.252Z,21.90
2017-07-05T18:45:21.862Z,21.90
2017-07-05T18:47:48.421Z,22.00
2017-07-05T18:50:15.287Z,22.20
2017-07-05T18:52:41.889Z,22.40
2017-07-05T18:55:09.203Z,22.00
2017-07-05T18:57:35.912Z,22.00
2017-07-05T19:00:02.827Z,21.70
2017-07-05T19:02:29.555Z,21.80
2017-07-05T19:04:56.244Z,21.30
2017-07-05T19:07:23.056Z,21.10
2017-07-05T19:09:50.020Z,21.00
2017-07-05T19:12:16.746Z,21.00
2017-07-05T19:14:43.380Z,21.10
2017-07-05T19:17:09.789Z,21.00
2017-07-05T19:19:36.659Z,20.90
2017-07-05T19:22:03.060Z,21.00
2017-07-05T19:24:29.419Z,20.70
2017-07-05T19:26:55.724Z,20.50
2017-07-05T19:29:22.009Z,20.40
2017-07-05T19:31:48.309Z,20.30
2017-07-05T19:34:14.639Z,20.20
2017-07-05T19:36:41.746Z,20.20
2017-07-05T19:39:08.083Z,20.10
2017-07-05T19:41:34.401Z,20.10
2017-07-05T19:44:00.682Z,19.80
2017-07-05T19:46:26.976Z,19.20
2017-07-05T19:48:53.299Z,18.70
2017-07-05T19:51:19.578Z,19.20
2017-07-05T19:53:45.996Z,19.20
2017-07-05T19:56:12.430Z,18.80
2017-07-05T19:58:38.737Z,18.90
2017-07-05T20:01:05.049Z,19.10
2017-07-05T20:03:31.405Z,19.40
2017-07-05T20:05:57.804Z,19.50
2017-07-05T20:08:24.227Z,19.80
2017-07-05T20:10:51.287Z,19.60
2017-07-05T20:13:17.582Z,19.60
2017-07-05T20:15:43.925Z,19.80
2017-07-05T20:18:10.294Z,19.90
2017-07-05T20:20:36.649Z,19.90
2017-07-05T20:23:02.952Z,19.80
2017-07-05T20:25:29.226Z,19.90
2017-07-05T20:27:55.514Z,19.70
2017-07-05T20:30:21.826Z,19.40
2017-07-05T20:32:48.130Z,19.30
2017-07-05T20:35:15.264Z,19.30
2017-07-05T20:37:41.557Z,19.20
2017-07-05T20:40:07.876Z,19.30
2017-07-05T20:42:34.803Z,19.30
2017-07-05T20:45:01.728Z,19.40
2017-07-05T20:47:28.805Z,19.50
2017-07-05T20:49:55.190Z,19.50
2017-07-05T20:52:21.506Z,19.60
2017-07-05T20:54:48.036Z,19.60
2017-07-05T20:57:14.482Z,19.30
2017-07-05T20:59:41.676Z,19.30
2017-07-05T21:02:08.135Z,19.20
2017-07-05T21:04:34.613Z,19.30
2017-07-05T21:07:01.052Z,19.50
2017-07-05T21:09:29.304Z,19.60
2017-07-05T21:11:55.739Z,19.50
2017-07-05T21:14:22.132Z,19.60
2017-07-05T21:16:48.689Z,19.50
2017-07-05T21:19:15.163Z,19.50
2017-07-05T21:21:41.673Z,19.30
2017-07-05T21:24:08.085Z,19.30
2017-07-05T21:26:34.483Z,19.30
2017-07-05T21:29:00.936Z,19.50
2017-07-05T21:31:27.406Z,19.50
2017-07-05T21:33:53.764Z,18.90
2017-07-05T21:36:20.192Z,19.00
2017-07-05T21:38:46.562Z,19.10
2017-07-05T21:41:19.872Z,19.10
2017-07-05T21:43:46.232Z,18.80
2017-07-05T21:46:12.555Z,19.00
2017-07-05T21:48:38.896Z,18.80
2017-07-05T21:51:05.208Z,18.80
2017-07-05T21:53:31.539Z,18.70
2017-07-05T21:55:57.849Z,18.80
2017-07-05T21:58:24.156Z,18.90
2017-07-05T22:00:50.490Z,18.90
2017-07-05T22:03:16.825Z,19.00
2017-07-05T22:05:43.149Z,19.00
2017-07-05T22:08:09.604Z,18.90
2017-07-05T22:10:35.941Z,18.90
2017-07-05T22:13:02.269Z,18.80
2017-07-05T22:15:28.599Z,18.70
2017-07-05T22:17:54.928Z,18.90
2017-07-05T22:20:21.308Z,18.90
2017-07-05T22:22:48.424Z,18.80
2017-07-05T22:25:15.077Z,18.80
2017-07-05T22:27:41.442Z,18.90
2017-07-05T22:30:07.824Z,18.80
2017-07-05T22:32:34.256Z,18.80
2017-07-05T22:35:01.515Z,18.70
2017-07-05T22:37:27.864Z,18.70
2017-07-05T22:39:54.206Z,18.80
2017-07-05T22:42:20.604Z,18.80
2017-07-05T22:44:46.941Z,18.80
2017-07-05T22:47:14.158Z,18.70
2017-07-05T22:49:40.593Z,18.70
2017-07-05T22:52:07.051Z,18.70
2017-07-05T22:54:33.417Z,18.50
2017-07-05T22:57:00.543Z,18.70
2017-07-05T22:59:26.911Z,18.60
2017-07-05T23:01:53.293Z,18.60
2017-07-05T23:04:19.661Z,18.40
2017-07-05T23:06:46.082Z,18.30
2017-07-05T23:09:12.569Z,18.40
2017-07-05T23:11:38.978Z,18.40
2017-07-05T23:14:05.364Z,18.60
2017-07-05T23:16:31.776Z,18.60
2017-07-05T23:18:58.139Z,18.60
2017-07-05T23:21:24.483Z,18.60
2017-07-05T23:23:50.832Z,18.50
2017-07-05T23:26:17.385Z,18.50
2017-07-05T23:28:43.737Z,18.60
2017-07-05T23:31:10.041Z,18.60
2017-07-05T23:33:36.378Z,18.30
2017-07-05T23:36:02.758Z,18.20
2017-07-05T23:38:29.827Z,17.60
2017-07-05T23:40:56.115Z,17.60
2017-07-05T23:43:22.729Z,17.80
2017-07-05T23:45:49.007Z,18.30
2017-07-05T23:48:15.276Z,18.20
2017-07-05T23:50:41.557Z,18.30
2017-07-05T23:53:07.822Z,18.10
2017-07-05T23:55:34.111Z,18.30
2017-07-05T23:58:00.367Z,18.30
